Time;durP1;ratioP1;P1;durP2;ratioP2;P2;SDS_P1;SDS_P2;PMS_P1;PMS_P2;Temp;Humidity;BMP_temperature;BMP_pressure;BME280_temperature;BME280_humidity;BME280_pressure;Samples;Min_cycle;Max_cycle;Signal;HPM_P1;HPM_P2
2022/12/27 00:00:52;;;;;;;5.63;0.80;;;8.80;34.70;;;;;;4964098;28;20854;-70
2022/12/27 00:03:19;;;;;;;4.60;1.00;;;8.80;35.00;;;;;;4963455;28;20468;-70
2022/12/27 00:05:47;;;;;;;7.13;0.80;;;8.70;35.00;;;;;;4962610;28;20517;-71
2022/12/27 00:08:15;;;;;;;3.73;0.83;;;8.60;35.20;;;;;;4966152;28;20540;-71
2022/12/27 00:10:43;;;;;;;3.80;0.90;;;8.60;35.40;;;;;;4968886;28;20488;-71
2022/12/27 00:13:10;;;;;;;3.57;0.77;;;8.50;35.90;;;;;;4966772;28;20585;-71
2022/12/27 00:15:37;;;;;;;4.30;1.23;;;8.50;35.50;;;;;;4965875;28;20462;-72
2022/12/27 00:18:04;;;;;;;4.67;0.90;;;8.50;35.00;;;;;;4966607;28;20466;-72
2022/12/27 00:20:31;;;;;;;3.73;1.00;;;8.50;34.70;;;;;;4965881;28;20481;-72
2022/12/27 00:23:00;;;;;;;3.93;1.10;;;8.40;34.80;;;;;;4964051;28;20541;-72
2022/12/27 00:25:28;;;;;;;5.00;1.00;;;8.40;34.60;;;;;;4971708;28;20465;-72
2022/12/27 00:27:56;;;;;;;4.47;1.10;;;8.40;34.90;;;;;;4966433;28;20545;-72
2022/12/27 00:30:23;;;;;;;3.60;1.00;;;8.40;35.00;;;;;;4960430;28;20573;-71
2022/12/27 00:32:49;;;;;;;4.07;1.10;;;8.40;35.40;;;;;;4965434;28;20466;-71
2022/12/27 00:35:16;;;;;;;4.10;0.90;;;8.30;35.90;;;;;;4966764;28;20473;-71
2022/12/27 00:37:43;;;;;;;4.47;1.10;;;8.30;36.10;;;;;;4969268;28;20465;-71
2022/12/27 00:40:11;;;;;;;5.70;1.20;;;8.30;36.20;;;;;;4963751;28;20989;-71
2022/12/27 00:42:38;;;;;;;3.90;1.10;;;8.20;36.30;;;;;;4967652;28;20844;-72
2022/12/27 00:45:08;;;;;;;4.30;1.07;;;8.30;36.40;;;;;;4965682;28;20465;-72
2022/12/27 00:47:35;;;;;;;4.10;1.10;;;8.20;36.40;;;;;;4966229;28;20457;-72
2022/12/27 00:50:02;;;;;;;3.80;1.10;;;8.10;36.40;;;;;;4969181;28;20521;-71
2022/12/27 00:52:29;;;;;;;6.70;1.30;;;8.10;36.40;;;;;;4967156;28;20528;-73
2022/12/27 00:54:56;;;;;;;11.47;2.10;;;8.00;35.80;;;;;;4965368;28;20465;-72
2022/12/27 00:57:22;;;;;;;4.60;1.53;;;8.10;35.30;;;;;;4965791;28;20881;-72
2022/12/27 00:59:50;;;;;;;5.77;1.50;;;8.00;34.70;;;;;;4966328;28;20556;-72
2022/12/27 01:02:18;;;;;;;4.30;1.23;;;8.00;35.00;;;;;;4964129;28;20477;-71
2022/12/27 01:04:45;;;;;;;5.53;1.43;;;7.90;34.70;;;;;;4966043;28;22630;-71
2022/12/27 01:07:12;;;;;;;4.70;1.50;;;7.90;34.30;;;;;;4967499;28;20470;-71
2022/12/27 01:09:41;;;;;;;5.93;1.30;;;7.90;33.80;;;;;;4962653;28;20864;-71
2022/12/27 01:12:08;;;;;;;5.30;1.37;;;7.80;34.20;;;;;;4963844;28;20496;-71
2022/12/27 01:14:35;;;;;;;5.00;1.30;;;7.70;34.00;;;;;;4964614;28;20890;-71
2022/12/27 01:17:03;;;;;;;5.40;1.70;;;7.70;34.40;;;;;;4967388;28;20472;-72
2022/12/27 01:19:31;;;;;;;5.53;1.57;;;7.60;34.50;;;;;;4964666;28;20497;-71
2022/12/27 01:21:58;;;;;;;4.50;1.13;;;7.50;34.80;;;;;;4967138;28;20491;-71
2022/12/27 01:24:25;;;;;;;4.40;1.20;;;7.50;34.90;;;;;;4965951;28;20515;-72
2022/12/27 01:26:52;;;;;;;4.73;1.17;;;7.50;34.50;;;;;;4970975;28;21012;-71
2022/12/27 01:29:19;;;;;;;7.17;1.70;;;7.50;34.70;;;;;;4965627;28;20992;-70
2022/12/27 01:31:47;;;;;;;4.70;1.20;;;7.50;34.90;;;;;;4964299;28;20478;-73
2022/12/27 01:34:14;;;;;;;5.07;1.70;;;7.50;34.90;;;;;;4961888;28;20603;-72
2022/12/27 01:36:43;;;;;;;4.93;1.10;;;7.50;35.00;;;;;;4972152;28;20544;-73
2022/12/27 01:39:11;;;;;;;5.17;1.40;;;7.50;35.00;;;;;;4966247;28;20509;-72
2022/12/27 01:44:49;;;;;;;5.40;2.83;;;7.60;33.80;;;;;;4965200;28;20901;-73
2022/12/27 01:47:20;;;;;;;7.17;2.27;;;7.70;33.60;;;;;;4959180;28;21610;-73
2022/12/27 01:50:05;;;;;;;4.40;1.40;;;7.70;33.90;;;;;;4967999;28;20587;-73
2022/12/27 01:52:36;;;;;;;4.00;1.37;;;7.70;34.20;;;;;;4967952;28;20465;-72
2022/12/27 01:55:12;;;;;;;4.67;1.37;;;7.60;33.50;;;;;;4969678;28;20465;-73
2022/12/27 01:57:40;;;;;;;4.83;1.30;;;7.60;33.70;;;;;;4969419;28;20464;-72
2022/12/27 02:00:08;;;;;;;4.90;1.83;;;7.60;34.30;;;;;;4973532;28;20462;-72
2022/12/27 02:02:35;;;;;;;6.93;1.40;;;7.50;34.70;;;;;;4968012;28;20556;-72
2022/12/27 02:05:02;;;;;;;4.97;1.50;;;7.50;34.90;;;;;;4970168;28;20974;-72
2022/12/27 02:07:40;;;;;;;6.30;1.40;;;7.50;35.30;;;;;;4970518;28;20476;-73
2022/12/27 02:10:08;;;;;;;4.50;1.03;;;7.50;35.40;;;;;;4971475;28;20461;-73
2022/12/27 02:12:34;;;;;;;6.10;0.97;;;7.60;35.90;;;;;;4971085;28;20864;-72
2022/12/27 02:15:03;;;;;;;3.70;1.00;;;7.60;35.80;;;;;;4967717;28;20458;-72
2022/12/27 02:17:31;;;;;;;3.60;0.80;;;7.60;35.50;;;;;;4968996;28;20473;-72
2022/12/27 02:20:04;;;;;;;3.90;1.20;;;7.50;35.30;;;;;;4966934;28;20555;-71
2022/12/27 02:26:24;;;;;;;5.40;1.13;;;7.30;35.60;;;;;;4969389;28;20937;-72
2022/12/27 02:29:07;;;;;;;4.10;1.00;;;7.20;35.50;;;;;;4963329;28;21100;-72
2022/12/27 02:31:40;;;;;;;4.57;1.30;;;7.10;35.70;;;;;;4965828;28;20481;-72
2022/12/27 02:34:14;;;;;;;6.37;1.20;;;7.10;35.70;;;;;;4968008;28;20462;-72
2022/12/27 02:36:44;;;;;;;9.83;1.57;;;7.00;35.30;;;;;;4977377;28;20457;-72
2022/12/27 02:39:12;;;;;;;7.63;1.40;;;7.00;35.30;;;;;;4969628;28;20469;-71
2022/12/27 02:53:06;;;;;;;5.80;1.40;;;6.60;35.40;;;;;;4964689;28;20511;-72
2022/12/27 02:58:51;;;;;;;5.10;1.83;;;6.60;34.30;;;;;;4965623;28;20472;-70
2022/12/27 03:04:35;;;;;;;4.97;1.43;;;6.40;34.60;;;;;;4963129;28;20456;-71
2022/12/27 03:07:18;;;;;;;4.83;1.43;;;6.30;35.00;;;;;;4967919;28;20453;-72
2022/12/27 03:15:56;;;;;;;7.23;1.80;;;6.10;35.70;;;;;;4968651;28;20561;-72
2022/12/27 03:18:41;;;;;;;6.67;1.73;;;6.00;35.70;;;;;;4966970;28;20841;-72
2022/12/27 03:26:45;;;;;;;5.63;1.13;;;6.00;34.70;;;;;;4968334;28;20480;-72
2022/12/27 03:34:53;;;;;;;7.77;1.33;;;5.80;33.60;;;;;;4967916;28;20452;-72
2022/12/27 03:40:15;;;;;;;4.90;1.30;;;5.70;33.70;;;;;;4966177;28;20456;-71
2022/12/27 03:48:24;;;;;;;4.47;1.43;;;5.60;33.70;;;;;;4945998;28;20608;-68
2022/12/27 03:51:03;;;;;;;4.40;1.00;;;5.50;33.80;;;;;;4944367;28;20470;-68
2022/12/27 03:53:34;;;;;;;4.20;1.40;;;5.40;33.80;;;;;;4949276;28;20466;-68
2022/12/27 03:56:01;;;;;;;5.53;1.40;;;5.30;34.10;;;;;;4944653;28;20589;-68
2022/12/27 03:58:28;;;;;;;5.87;1.30;;;5.30;34.20;;;;;;4945898;28;20462;-68
2022/12/27 04:00:55;;;;;;;6.93;1.20;;;5.20;34.20;;;;;;4948318;28;20970;-68
2022/12/27 04:03:21;;;;;;;4.73;1.13;;;5.20;34.20;;;;;;4949175;28;20483;-67
2022/12/27 04:05:48;;;;;;;5.97;0.97;;;5.00;33.90;;;;;;4943207;28;20991;-68
2022/12/27 04:35:40;;;;;;;5.90;1.87;;;4.50;35.90;;;;;;4944319;28;20529;-68
2022/12/27 04:38:06;;;;;;;6.30;1.97;;;4.40;36.10;;;;;;4942529;28;20470;-68
2022/12/27 04:57:04;;;;;;;5.20;1.23;;;4.40;35.90;;;;;;4947463;28;20815;-68
2022/12/27 05:02:16;;;;;;;4.03;1.23;;;4.30;35.80;;;;;;4940413;28;20470;-68
2022/12/27 05:04:43;;;;;;;4.27;1.50;;;4.40;35.80;;;;;;4944607;28;21011;-68
2022/12/27 05:15:29;;;;;;;4.93;1.40;;;4.20;35.90;;;;;;4953547;28;20481;-68
2022/12/27 05:17:57;;;;;;;6.30;1.87;;;4.20;36.00;;;;;;4945121;28;20467;-67
2022/12/27 05:20:24;;;;;;;5.60;1.63;;;4.20;36.10;;;;;;4946473;28;20490;-68
2022/12/27 05:25:39;;;;;;;5.10;2.03;;;4.10;36.90;;;;;;4952686;28;20481;-68
2022/12/27 05:28:09;;;;;;;7.17;1.97;;;4.10;37.10;;;;;;4949932;28;20477;-68
2022/12/27 05:30:38;;;;;;;4.90;1.77;;;4.10;36.70;;;;;;4945729;28;20838;-68
2022/12/27 05:33:05;;;;;;;6.73;2.40;;;4.10;36.80;;;;;;4942504;28;20485;-67
2022/12/27 05:35:33;;;;;;;5.63;1.77;;;4.10;37.00;;;;;;4943752;28;20862;-68
2022/12/27 05:38:00;;;;;;;5.83;2.00;;;4.10;38.20;;;;;;4946606;28;20586;-68
2022/12/27 05:40:27;;;;;;;5.57;2.00;;;4.10;37.80;;;;;;4950668;28;20600;-68
2022/12/27 05:42:54;;;;;;;6.83;2.20;;;4.20;38.00;;;;;;4950847;28;20486;-68
2022/12/27 05:45:22;;;;;;;9.87;2.20;;;4.20;38.20;;;;;;4948374;28;20501;-67
2022/12/27 05:47:48;;;;;;;6.90;1.90;;;4.20;38.30;;;;;;4948093;28;20470;-67
2022/12/27 05:50:15;;;;;;;4.83;2.40;;;4.20;38.20;;;;;;4948043;28;20970;-67
2022/12/27 05:52:42;;;;;;;6.13;2.10;;;4.10;38.30;;;;;;4950530;28;20971;-67
2022/12/27 05:55:09;;;;;;;5.87;1.97;;;4.10;38.40;;;;;;4944803;28;20489;-67
2022/12/27 05:57:36;;;;;;;6.40;2.33;;;4.00;38.50;;;;;;4948346;28;20479;-67
2022/12/27 06:00:05;;;;;;;6.43;2.60;;;4.00;38.70;;;;;;4949326;28;20474;-67
2022/12/27 06:02:33;;;;;;;8.20;2.20;;;4.00;38.80;;;;;;4942932;28;20490;-67
2022/12/27 06:05:00;;;;;;;7.67;2.47;;;4.00;38.80;;;;;;4941762;28;20517;-68
2022/12/27 06:07:26;;;;;;;5.50;2.30;;;4.00;38.80;;;;;;4944846;28;20479;-68
2022/12/27 06:09:53;;;;;;;5.10;1.93;;;4.00;38.90;;;;;;4939387;28;20463;-66
2022/12/27 06:12:20;;;;;;;5.27;2.10;;;3.90;39.00;;;;;;4950793;28;20467;-67
2022/12/27 06:14:47;;;;;;;5.10;2.23;;;3.90;39.10;;;;;;4949946;28;20476;-67
2022/12/27 06:17:13;;;;;;;6.50;2.97;;;3.80;39.10;;;;;;4949015;28;20462;-68
2022/12/27 06:19:41;;;;;;;7.60;2.30;;;3.80;39.10;;;;;;4944550;28;20462;-69
2022/12/27 06:22:08;;;;;;;7.33;2.60;;;3.80;39.20;;;;;;4945771;28;20464;-68
2022/12/27 06:24:35;;;;;;;6.20;3.13;;;3.80;39.30;;;;;;4940492;28;20482;-67
2022/12/27 06:27:02;;;;;;;12.47;4.37;;;3.70;39.30;;;;;;4944844;28;20489;-68
2022/12/27 06:29:28;;;;;;;7.50;3.67;;;3.70;39.30;;;;;;4945652;28;20484;-67
2022/12/27 06:31:55;;;;;;;12.63;5.00;;;3.70;39.50;;;;;;4941302;28;20517;-68
2022/12/27 06:34:22;;;;;;;7.53;3.00;;;3.70;39.50;;;;;;4942618;28;20459;-67
2022/12/27 06:36:50;;;;;;;9.37;2.73;;;3.70;39.50;;;;;;4948856;28;20573;-68
2022/12/27 06:39:17;;;;;;;9.30;2.53;;;3.70;39.80;;;;;;4953857;28;20473;-68
2022/12/27 06:41:44;;;;;;;6.37;2.57;;;3.70;39.70;;;;;;4946527;28;20941;-68
2022/12/27 06:44:10;;;;;;;5.20;2.10;;;3.80;39.60;;;;;;4947659;28;20501;-68
2022/12/27 06:46:37;;;;;;;6.73;2.90;;;3.80;39.50;;;;;;4951959;28;20486;-68
2022/12/27 06:49:04;;;;;;;6.47;3.10;;;3.80;39.50;;;;;;4950534;28;20469;-67
2022/12/27 06:51:33;;;;;;;8.27;2.77;;;3.70;39.60;;;;;;4949459;28;20462;-68
2022/12/27 06:54:01;;;;;;;5.60;2.50;;;3.70;39.60;;;;;;4955084;28;20469;-68
2022/12/27 06:56:27;;;;;;;7.83;2.90;;;3.70;39.60;;;;;;4947747;28;20483;-67
2022/12/27 06:58:54;;;;;;;7.27;2.60;;;3.70;39.60;;;;;;4948410;28;20829;-68
2022/12/27 07:01:23;;;;;;;9.93;2.70;;;3.80;39.40;;;;;;4947980;28;20482;-68
2022/12/27 07:03:50;;;;;;;5.47;2.40;;;3.80;39.20;;;;;;4953585;28;20491;-68
2022/12/27 07:06:17;;;;;;;6.77;2.40;;;3.80;39.20;;;;;;4951118;28;20486;-68
2022/12/27 07:08:45;;;;;;;7.43;2.30;;;3.80;39.20;;;;;;4954564;28;20474;-68
2022/12/27 07:11:14;;;;;;;8.43;2.40;;;3.80;39.00;;;;;;4949832;28;20537;-67
2022/12/27 07:13:43;;;;;;;8.07;4.50;;;3.80;39.00;;;;;;4945624;28;20950;-67
2022/12/27 07:16:11;;;;;;;7.03;4.53;;;3.80;38.90;;;;;;4949530;28;20489;-68
2022/12/27 07:18:39;;;;;;;10.03;5.80;;;3.80;38.70;;;;;;4949487;28;20992;-67
2022/12/27 07:21:06;;;;;;;7.07;4.40;;;3.80;38.80;;;;;;4949492;28;20963;-68
2022/12/27 07:23:33;;;;;;;10.80;5.07;;;3.70;38.70;;;;;;4947815;28;20470;-68
2022/12/27 07:26:03;;;;;;;8.63;3.30;;;3.70;38.70;;;;;;4950944;28;20509;-68
2022/12/27 07:28:32;;;;;;;7.43;2.50;;;3.80;38.60;;;;;;4948513;28;20463;-68
2022/12/27 07:30:59;;;;;;;5.30;3.10;;;3.80;38.50;;;;;;4947089;28;20517;-68
2022/12/27 07:33:26;;;;;;;8.00;4.83;;;3.80;38.50;;;;;;4952474;28;20466;-68
2022/12/27 07:35:58;;;;;;;5.87;3.33;;;3.80;38.50;;;;;;4944330;28;20562;-69
2022/12/27 07:38:25;;;;;;;5.53;2.70;;;3.80;38.50;;;;;;4953677;28;20510;-69
2022/12/27 07:40:52;;;;;;;5.87;2.53;;;3.90;38.60;;;;;;4939608;28;20850;-69
2022/12/27 07:43:19;;;;;;;5.20;2.03;;;4.00;38.60;;;;;;4941802;28;20793;-69
2022/12/27 07:45:47;;;;;;;5.67;2.37;;;4.10;38.60;;;;;;4943921;28;20496;-68
2022/12/27 07:48:14;;;;;;;5.60;2.80;;;4.10;38.50;;;;;;4940307;28;20470;-69
2022/12/27 07:50:40;;;;;;;5.90;2.43;;;4.20;38.30;;;;;;4945330;28;20466;-69
2022/12/27 07:53:07;;;;;;;7.97;3.03;;;4.30;38.00;;;;;;4946060;28;20470;-68
2022/12/27 07:55:34;;;;;;;6.97;3.10;;;4.50;38.00;;;;;;4940379;28;20902;-68
2022/12/27 07:58:01;;;;;;;6.13;2.87;;;4.60;37.70;;;;;;4940427;28;20466;-69
2022/12/27 08:00:28;;;;;;;9.53;4.37;;;4.70;37.40;;;;;;4929336;28;20553;-68
2022/12/27 08:02:57;;;;;;;9.53;5.13;;;4.90;37.20;;;;;;4941626;28;20471;-70
2022/12/27 08:05:23;;;;;;;17.43;7.33;;;5.20;36.20;;;;;;4939934;28;20486;-70
2022/12/27 08:07:50;;;;;;;15.03;7.90;;;5.40;35.80;;;;;;4947412;28;20462;-70
2022/12/27 08:10:17;;;;;;;14.33;7.80;;;5.90;34.90;;;;;;4948623;28;20469;-70
2022/12/27 08:12:44;;;;;;;14.17;8.13;;;6.50;33.70;;;;;;4944408;28;20467;-70
2022/12/27 08:15:11;;;;;;;15.37;6.33;;;7.40;31.50;;;;;;4939428;28;20483;-70
2022/12/27 08:17:38;;;;;;;9.03;4.20;;;8.30;28.90;;;;;;4936227;28;21121;-70
2022/12/27 08:20:13;;;;;;;11.90;4.40;;;9.20;25.80;;;;;;4941162;28;21005;-70
2022/12/27 08:22:40;;;;;;;8.40;3.07;;;10.00;23.00;;;;;;4940308;28;20575;-70
2022/12/27 08:25:07;;;;;;;9.87;3.87;;;10.70;20.80;;;;;;4939713;28;20493;-70
2022/12/27 08:27:34;;;;;;;6.77;2.70;;;11.00;19.20;;;;;;4942986;28;20462;-71
2022/12/27 08:30:01;;;;;;;6.87;2.40;;;11.50;18.40;;;;;;4944405;28;20459;-70
2022/12/27 08:32:27;;;;;;;5.63;2.27;;;11.90;17.40;;;;;;4943786;28;20478;-70
2022/12/27 08:34:54;;;;;;;6.20;2.60;;;12.20;16.10;;;;;;4936634;28;20458;-71
2022/12/27 08:37:22;;;;;;;9.70;3.23;;;12.30;15.90;;;;;;4939772;28;20474;-71
2022/12/27 08:39:49;;;;;;;5.40;2.00;;;12.50;15.50;;;;;;4940479;28;20470;-71
2022/12/27 08:42:15;;;;;;;7.23;2.87;;;12.50;15.00;;;;;;4939826;28;20544;-71
2022/12/27 08:44:42;;;;;;;6.83;2.70;;;12.60;14.40;;;;;;4941909;28;20493;-71
2022/12/27 08:47:09;;;;;;;5.90;2.80;;;12.70;13.70;;;;;;4945363;28;20474;-71
2022/12/27 08:49:36;;;;;;;6.40;3.17;;;12.70;13.30;;;;;;4942385;28;20470;-71
2022/12/27 08:52:03;;;;;;;7.87;2.37;;;12.80;13.90;;;;;;4939979;28;21245;-71
2022/12/27 08:54:31;;;;;;;4.60;1.97;;;12.80;12.80;;;;;;4942501;28;20485;-71
2022/12/27 08:56:58;;;;;;;6.73;2.40;;;12.90;12.60;;;;;;4940961;28;20489;-71
2022/12/27 08:59:24;;;;;;;6.40;2.30;;;12.90;12.80;;;;;;4947601;28;20470;-70
2022/12/27 09:01:51;;;;;;;6.30;1.67;;;12.90;12.60;;;;;;4945494;28;20474;-71
2022/12/27 09:04:18;;;;;;;5.80;2.47;;;12.90;12.70;;;;;;4946823;28;20482;-71
2022/12/27 09:06:44;;;;;;;6.83;1.63;;;12.90;12.60;;;;;;4943107;28;20521;-71
2022/12/27 09:09:11;;;;;;;4.30;1.47;;;12.80;12.70;;;;;;4938953;28;21023;-71
2022/12/27 09:11:39;;;;;;;4.20;1.20;;;12.80;12.40;;;;;;4939420;28;21005;-69
2022/12/27 09:14:06;;;;;;;5.03;1.73;;;12.90;12.00;;;;;;4941873;28;20462;-71
2022/12/27 09:16:34;;;;;;;4.57;1.53;;;12.90;11.90;;;;;;4945406;28;20494;-71
2022/12/27 09:19:01;;;;;;;5.57;1.53;;;13.00;11.50;;;;;;4949093;28;20470;-72
2022/12/27 09:21:31;;;;;;;5.60;1.53;;;13.10;11.40;;;;;;4948899;28;20462;-71
2022/12/27 09:23:58;;;;;;;7.53;1.70;;;13.20;11.00;;;;;;4954335;28;20530;-72
2022/12/27 09:26:27;;;;;;;4.57;1.73;;;13.30;11.30;;;;;;4951867;28;20485;-71
2022/12/27 09:28:57;;;;;;;4.93;1.50;;;13.50;11.20;;;;;;4954751;28;20466;-72
2022/12/27 09:31:24;;;;;;;5.23;1.80;;;13.50;10.90;;;;;;4954781;28;20482;-71
2022/12/27 09:33:51;;;;;;;10.57;4.37;;;13.70;11.20;;;;;;4949687;28;20955;-71
2022/12/27 09:36:20;;;;;;;5.27;2.67;;;13.80;10.50;;;;;;4952012;28;20482;-72
2022/12/27 09:38:48;;;;;;;4.53;1.90;;;13.90;10.30;;;;;;4949211;28;20471;-72
2022/12/27 09:41:21;;;;;;;4.73;1.77;;;14.00;10.00;;;;;;4946431;29;20473;-71
2022/12/27 09:43:59;;;;;;;5.40;2.07;;;14.10;10.40;;;;;;4952624;28;20477;-72
2022/12/27 09:46:31;;;;;;;5.13;2.03;;;14.20;9.70;;;;;;4948774;28;20498;-71
2022/12/27 09:48:58;;;;;;;6.87;2.83;;;14.10;9.10;;;;;;4948587;28;20473;-71
2022/12/27 09:51:30;;;;;;;6.00;1.97;;;14.20;9.30;;;;;;4951879;28;20971;-72
2022/12/27 09:54:02;;;;;;;7.23;3.47;;;14.20;9.10;;;;;;4952007;28;20459;-72
2022/12/27 09:56:32;;;;;;;7.43;2.90;;;14.30;8.90;;;;;;4947865;28;21030;-71
2022/12/27 09:59:09;;;;;;;5.00;1.67;;;14.40;9.20;;;;;;4952225;28;20455;-71
2022/12/27 10:01:39;;;;;;;4.90;1.30;;;14.50;9.30;;;;;;4951566;28;20505;-72
2022/12/27 10:04:11;;;;;;;4.40;1.30;;;14.60;8.90;;;;;;4947033;28;20485;-72
2022/12/27 10:07:02;;;;;;;4.80;1.33;;;14.70;8.10;;;;;;4946732;28;20490;-71
2022/12/27 10:09:42;;;;;;;4.60;1.03;;;14.90;7.90;;;;;;4950361;28;20463;-71
2022/12/27 10:12:21;;;;;;;5.07;1.37;;;15.00;7.90;;;;;;4946289;29;20462;-71
2022/12/27 10:15:06;;;;;;;5.50;1.67;;;15.10;7.80;;;;;;4947078;28;20462;-72
2022/12/27 10:17:48;;;;;;;5.47;1.20;;;15.10;7.60;;;;;;4951959;28;20459;-71
2022/12/27 10:20:31;;;;;;;4.30;1.10;;;15.30;7.10;;;;;;4948921;28;20631;-71
2022/12/27 10:23:02;;;;;;;4.57;0.97;;;15.50;7.10;;;;;;4951137;28;20801;-72
2022/12/27 10:25:30;;;;;;;4.43;1.03;;;15.70;7.60;;;;;;4948126;28;21003;-72
2022/12/27 10:28:01;;;;;;;3.97;0.90;;;15.90;6.40;;;;;;4950208;28;20466;-72
2022/12/27 10:30:31;;;;;;;5.30;1.10;;;16.10;5.60;;;;;;4950013;28;20470;-72
2022/12/27 10:32:57;;;;;;;3.90;1.10;;;16.30;5.30;;;;;;4945747;28;20493;-71
2022/12/27 10:35:25;;;;;;;6.93;1.60;;;16.60;4.40;;;;;;4945850;28;20555;-69
2022/12/27 10:37:52;;;;;;;5.40;1.83;;;16.90;5.10;;;;;;4945528;28;20492;-71
2022/12/27 10:40:24;;;;;;;4.63;1.53;;;17.20;4.40;;;;;;4949657;28;20529;-70
2022/12/27 10:43:04;;;;;;;6.53;1.60;;;17.50;3.40;;;;;;4946490;28;20999;-71
2022/12/27 10:45:35;;;;;;;6.80;1.70;;;18.00;2.30;;;;;;4940748;28;20502;-71
2022/12/27 10:48:15;;;;;;;5.77;1.40;;;18.50;2.20;;;;;;4953248;28;20494;-70
2022/12/27 10:50:45;;;;;;;4.73;1.60;;;19.00;1.40;;;;;;4943725;28;20463;-71
2022/12/27 10:53:29;;;;;;;4.17;1.40;;;19.50;1.00;;;;;;4946020;28;20477;-71
2022/12/27 10:56:13;;;;;;;5.57;2.13;;;20.10;1.00;;;;;;4949237;28;21016;-71
2022/12/27 10:58:44;;;;;;;4.00;1.50;;;20.80;1.00;;;;;;4948688;28;20496;-71
2022/12/27 11:01:18;;;;;;;5.67;1.60;;;21.40;1.00;;;;;;4952901;28;20475;-70
2022/12/27 11:03:44;;;;;;;5.50;1.53;;;22.00;1.00;;;;;;4952136;28;20553;-70
2022/12/27 11:06:23;;;;;;;5.30;1.57;;;22.50;1.00;;;;;;4955948;28;20500;-71
2022/12/27 11:08:51;;;;;;;4.03;1.10;;;22.00;1.00;;;;;;4949880;28;20488;-71
2022/12/27 11:11:21;;;;;;;5.80;1.57;;;21.80;1.00;;;;;;4949786;28;20974;-70
2022/12/27 11:13:49;;;;;;;3.70;1.17;;;20.70;1.00;;;;;;4956558;28;20469;-72
2022/12/27 11:16:23;;;;;;;5.63;1.40;;;19.80;1.00;;;;;;4950012;28;20875;-70
2022/12/27 11:18:52;;;;;;;5.70;1.30;;;19.50;1.00;;;;;;4952685;28;21009;-70
2022/12/27 11:21:20;;;;;;;4.23;1.00;;;19.50;1.00;;;;;;4948188;28;20458;-70
2022/12/27 11:23:52;;;;;;;4.60;1.40;;;19.60;1.00;;;;;;4954652;28;21085;-70
2022/12/27 11:26:22;;;;;;;5.23;1.50;;;19.80;1.00;;;;;;4947157;28;20566;-72
2022/12/27 11:28:53;;;;;;;4.60;1.30;;;19.90;1.00;;;;;;4951482;28;20458;-69
2022/12/27 11:31:30;;;;;;;4.80;1.57;;;20.10;1.00;;;;;;4949800;28;20529;-69
2022/12/27 11:33:58;;;;;;;4.60;1.30;;;19.80;1.00;;;;;;4948738;28;20516;-71
2022/12/27 11:36:28;;;;;;;5.87;1.70;;;19.60;1.00;;;;;;4949587;28;20549;-69
2022/12/27 11:38:55;;;;;;;5.00;1.30;;;19.20;1.00;;;;;;4952093;28;20461;-70
2022/12/27 11:41:34;;;;;;;10.33;5.90;;;18.90;1.00;;;;;;4949560;28;21009;-70
2022/12/27 11:44:10;;;;;;;5.20;1.50;;;18.70;1.30;;;;;;4945534;28;20470;-70
2022/12/27 11:46:42;;;;;;;4.80;1.30;;;18.70;1.60;;;;;;4951639;28;20486;-70
2022/12/27 11:49:15;;;;;;;4.63;1.57;;;18.50;1.80;;;;;;4952075;28;20483;-70
2022/12/27 11:51:55;;;;;;;5.70;1.70;;;18.50;2.30;;;;;;4946752;28;20470;-70
2022/12/27 11:54:58;;;;;;;7.13;1.50;;;18.50;2.10;;;;;;4946530;28;20467;-70
2022/12/27 11:57:36;;;;;;;7.27;1.43;;;18.80;2.10;;;;;;4947818;28;20480;-70
2022/12/27 12:00:12;;;;;;;5.47;1.30;;;18.70;2.40;;;;;;4948585;28;20470;-70
2022/12/27 12:03:08;;;;;;;4.80;1.40;;;18.80;2.20;;;;;;4954938;28;20486;-70
2022/12/27 12:06:04;;;;;;;6.00;1.80;;;19.20;1.90;;;;;;4943690;28;20493;-70
2022/12/27 12:09:03;;;;;;;4.67;1.37;;;19.50;1.70;;;;;;4951751;28;20474;-70
2022/12/27 12:11:44;;;;;;;4.60;1.50;;;19.40;1.00;;;;;;4946777;28;20494;-70
2022/12/27 12:14:40;;;;;;;5.70;1.60;;;19.30;1.20;;;;;;4950863;28;20478;-70
2022/12/27 12:17:44;;;;;;;4.50;1.17;;;19.20;1.70;;;;;;4944493;28;20474;-70
2022/12/27 12:20:36;;;;;;;4.20;1.50;;;19.10;1.20;;;;;;4951045;28;20462;-70
2022/12/27 12:23:11;;;;;;;5.13;1.30;;;19.00;1.70;;;;;;4946551;28;20470;-69
2022/12/27 12:26:14;;;;;;;7.17;2.03;;;18.60;1.40;;;;;;4948150;28;20486;-70
2022/12/27 12:29:14;;;;;;;6.13;1.63;;;18.20;1.60;;;;;;4945120;29;20470;-70
2022/12/27 12:32:09;;;;;;;5.80;1.47;;;17.80;1.80;;;;;;4948520;28;20483;-70
2022/12/27 12:35:18;;;;;;;4.50;2.03;;;17.40;2.60;;;;;;4952659;28;20466;-69
2022/12/27 12:38:03;;;;;;;5.33;1.20;;;16.90;2.90;;;;;;4951170;28;20473;-70
2022/12/27 12:40:58;;;;;;;4.20;1.50;;;16.50;4.00;;;;;;4944653;28;20519;-70
2022/12/27 12:43:43;;;;;;;5.70;1.40;;;16.30;4.70;;;;;;4950903;28;20462;-70
2022/12/27 12:46:24;;;;;;;4.50;1.30;;;16.20;5.50;;;;;;4945603;28;20505;-70
2022/12/27 12:49:21;;;;;;;10.30;5.80;;;15.90;5.80;;;;;;4944517;28;20462;-70
2022/12/27 12:52:03;;;;;;;14.83;9.90;;;15.60;6.40;;;;;;4947326;28;20551;-70
2022/12/27 12:54:46;;;;;;;26.57;18.53;;;15.20;7.00;;;;;;4948762;28;20471;-71
2022/12/27 12:57:27;;;;;;;8.03;5.40;;;14.70;8.00;;;;;;4948676;28;20463;-70
2022/12/27 13:00:21;;;;;;;6.93;3.47;;;14.30;9.10;;;;;;4949922;28;20469;-70
2022/12/27 13:03:25;;;;;;;8.70;3.30;;;14.00;9.60;;;;;;4949219;28;20466;-70
2022/12/27 13:06:00;;;;;;;6.33;2.10;;;13.70;10.30;;;;;;4936767;28;20493;-71
2022/12/27 13:08:35;;;;;;;4.93;2.37;;;13.40;10.70;;;;;;4950025;28;20991;-71
2022/12/27 13:11:23;;;;;;;5.03;1.80;;;13.10;11.10;;;;;;4947130;28;20509;-69
2022/12/27 13:14:03;;;;;;;5.90;2.40;;;12.90;11.50;;;;;;4946364;28;20837;-70
2022/12/27 13:16:42;;;;;;;6.10;1.60;;;12.70;11.90;;;;;;4944542;28;20505;-70
2022/12/27 13:19:28;;;;;;;5.13;1.77;;;12.60;12.50;;;;;;4950068;28;20466;-69
2022/12/27 13:22:08;;;;;;;5.80;1.60;;;12.40;12.40;;;;;;4946555;28;20467;-70
2022/12/27 13:24:51;;;;;;;4.73;1.30;;;12.30;12.90;;;;;;4946965;28;20807;-70
2022/12/27 13:27:30;;;;;;;4.67;1.80;;;12.20;12.90;;;;;;4945976;28;20478;-70
2022/12/27 13:30:05;;;;;;;4.50;1.73;;;12.10;13.40;;;;;;4949108;28;20493;-69
2022/12/27 13:32:49;;;;;;;4.07;1.13;;;12.00;12.70;;;;;;4944512;28;20493;-70
2022/12/27 13:35:31;;;;;;;4.03;1.40;;;11.90;12.60;;;;;;4947583;28;21011;-70
2022/12/27 13:38:11;;;;;;;8.20;3.50;;;11.80;12.80;;;;;;4950026;28;20458;-70
2022/12/27 13:41:18;;;;;;;20.47;2.73;;;11.80;13.60;;;;;;4947496;28;20451;-70
2022/12/27 13:43:55;;;;;;;4.00;1.70;;;11.70;14.80;;;;;;4935611;28;20985;-70
2022/12/27 13:46:50;;;;;;;3.90;1.13;;;11.60;13.90;;;;;;4950887;28;20501;-70
2022/12/27 13:49:49;;;;;;;5.67;1.93;;;11.50;13.40;;;;;;4895335;28;20469;-70
2022/12/27 13:52:38;;;;;;;5.63;2.33;;;11.50;13.10;;;;;;4945710;28;20545;-70
2022/12/27 13:55:35;;;;;;;5.27;1.53;;;11.30;13.80;;;;;;4952350;28;20487;-70
2022/12/27 13:58:38;;;;;;;5.63;2.30;;;11.20;14.10;;;;;;4945087;28;20473;-70
2022/12/27 14:01:20;;;;;;;5.17;1.60;;;11.10;14.70;;;;;;4921488;28;20478;-70
2022/12/27 14:04:04;;;;;;;5.80;2.83;;;11.00;15.30;;;;;;4953438;28;20461;-70
2022/12/27 14:06:59;;;;;;;5.53;1.80;;;10.90;15.10;;;;;;4950696;28;20494;-70
2022/12/27 14:09:47;;;;;;;8.33;3.10;;;10.90;14.80;;;;;;4926234;28;20877;-70
2022/12/27 14:12:42;;;;;;;5.97;2.27;;;10.80;14.80;;;;;;4947636;28;20465;-70
2022/12/27 14:15:15;;;;;;;8.10;3.33;;;10.70;15.40;;;;;;4934283;28;20478;-70
2022/12/27 14:17:51;;;;;;;6.70;2.07;;;10.70;15.60;;;;;;4943971;28;20495;-70
2022/12/27 14:20:52;;;;;;;5.60;2.50;;;10.60;14.80;;;;;;4946912;28;20462;-70
2022/12/27 14:23:34;;;;;;;6.40;2.83;;;10.60;15.00;;;;;;4946697;28;20458;-70
2022/12/27 14:26:46;;;;;;;6.33;3.20;;;10.50;15.70;;;;;;4944307;28;20965;-70
2022/12/27 14:29:52;;;;;;;7.60;3.33;;;10.30;16.40;;;;;;4943399;28;20470;-70
2022/12/27 14:32:52;;;;;;;5.80;2.83;;;10.20;16.80;;;;;;4940343;28;20481;-70
2022/12/27 14:36:02;;;;;;;7.13;3.30;;;10.10;17.10;;;;;;4939152;28;20474;-70
2022/12/27 14:41:59;;;;;;;8.40;3.57;;;9.80;17.40;;;;;;4939095;28;20586;-63
2022/12/27 14:45:00;;;;;;;6.03;2.00;;;9.80;17.40;;;;;;4943312;28;20469;-63
2022/12/27 14:48:06;;;;;;;5.57;1.70;;;9.60;17.40;;;;;;4934721;28;20463;-63
2022/12/27 14:51:21;;;;;;;5.90;2.10;;;9.50;18.00;;;;;;4912995;28;20487;-63
2022/12/27 14:54:17;;;;;;;6.27;2.90;;;9.40;18.30;;;;;;4900345;29;20463;-64
2022/12/27 14:56:54;;;;;;;9.20;3.00;;;9.20;18.50;;;;;;4924715;29;20635;-62
2022/12/27 14:59:33;;;;;;;11.73;2.90;;;9.10;18.90;;;;;;4930028;29;20479;-63
2022/12/27 15:02:16;;;;;;;6.93;2.30;;;9.00;19.10;;;;;;4931097;28;20479;-64
2022/12/27 15:04:55;;;;;;;6.37;1.80;;;8.90;19.40;;;;;;4929675;29;20478;-63
2022/12/27 15:07:37;;;;;;;8.50;4.00;;;8.80;19.40;;;;;;4927940;29;20483;-64
2022/12/27 15:10:12;;;;;;;11.20;4.70;;;8.80;19.70;;;;;;4925721;29;20483;-63
2022/12/27 15:12:45;;;;;;;18.77;8.00;;;8.70;19.80;;;;;;4925446;29;20995;-63
2022/12/27 15:15:27;;;;;;;24.60;10.77;;;8.60;19.90;;;;;;4926145;29;20490;-63
2022/12/27 15:18:19;;;;;;;23.00;11.00;;;8.50;20.20;;;;;;4927406;29;20487;-63